Terminal Aerodrome Forecast
Issued by NWS Paducah, KY

Home | Current Version | Previous Version | Text Only | Print | Product List | Glossary On
Versions: 1 2 3 4 5 6 7 8 9 10 11 12 13 14 15 16 17 18 19 20 21 22 23 24 25 26 27 28 29
000
FTUS43 KPAH 152139 AAA
TAFEVV
TAF AMD
KEVV 152139Z 1522/1618 23023G37KT P6SM BKN035
     FM160100 22012G21KT P6SM OVC025
     FM160300 24015G25KT P6SM VCSH OVC015
     FM160800 31017G26KT 4SM SHRA BR OVC010
      TEMPO 1608/1612 2SM SHRA BR OVC005
     FM161200 34016G26KT 5SM -SHRA BR OVC010
     FM161600 35012G23KT P6SM BKN015=

USA.gov is the U.S. government's official web portal to all federal, state and local government web resources and services.